createdAt,value
2022-12-23T00:00:28.329Z,99.99
2022-12-23T00:01:27.684Z,99.99
2022-12-23T00:02:27.948Z,99.99
2022-12-23T00:03:29.368Z,99.99
2022-12-23T00:04:27.391Z,99.99
2022-12-23T00:05:59.817Z,99.99
2022-12-23T00:06:27.580Z,99.99
2022-12-23T00:07:27.137Z,99.99
2022-12-23T00:08:27.396Z,99.99
2022-12-23T00:09:27.682Z,99.99
2022-12-23T00:10:26.897Z,99.99
2022-12-23T00:11:41.707Z,99.99
2022-12-23T00:12:28.444Z,99.99
2022-12-23T00:13:27.670Z,99.99
2022-12-23T00:15:21.940Z,99.99
2022-12-23T00:15:28.276Z,99.99
2022-12-23T00:16:28.530Z,99.99
2022-12-23T00:17:30.839Z,99.99
2022-12-23T00:18:28.032Z,99.99
2022-12-23T00:19:28.239Z,99.99
2022-12-23T00:20:29.656Z,99.99
2022-12-23T00:21:27.727Z,99.99
2022-12-23T00:22:29.083Z,99.99
2022-12-23T00:23:28.243Z,99.99
2022-12-23T00:24:29.572Z,99.99
2022-12-23T00:25:28.833Z,99.99
2022-12-23T00:26:29.087Z,99.99
2022-12-23T00:27:32.824Z,99.99
2022-12-23T00:29:19.422Z,99.99
2022-12-23T00:29:27.768Z,99.99
2022-12-23T00:30:28.009Z,99.99
2022-12-23T00:31:53.258Z,99.99
2022-12-23T00:32:29.547Z,99.99
2022-12-23T00:33:27.737Z,99.99
2022-12-23T00:34:54.046Z,99.99
2022-12-23T00:35:29.310Z,99.99
2022-12-23T00:36:27.877Z,99.99
2022-12-23T00:37:27.873Z,99.99
2022-12-23T00:38:28.053Z,99.99
2022-12-23T00:39:29.322Z,99.99
2022-12-23T00:40:28.603Z,99.99
2022-12-23T00:41:27.802Z,99.99
2022-12-23T00:43:00.606Z,99.99
2022-12-23T00:43:28.318Z,99.99
2022-12-23T00:44:27.581Z,99.99
2022-12-23T00:45:27.841Z,99.99
2022-12-23T00:46:28.186Z,99.99
2022-12-23T00:47:27.308Z,99.99
2022-12-23T00:48:27.648Z,99.99
2022-12-23T00:49:27.847Z,99.99
2022-12-23T00:50:28.151Z,99.99
2022-12-23T00:51:28.444Z,99.99
2022-12-23T00:52:27.590Z,99.99
2022-12-23T00:53:28.953Z,99.99
2022-12-23T00:54:29.146Z,99.99
2022-12-23T00:55:28.389Z,99.99
2022-12-23T00:56:30.811Z,99.99
2022-12-23T00:57:27.850Z,99.99
2022-12-23T00:58:28.092Z,99.99
2022-12-23T00:59:27.383Z,99.99
2022-12-23T01:00:27.572Z,99.99
2022-12-23T01:01:27.912Z,99.99
2022-12-23T01:02:28.221Z,99.99
2022-12-23T01:03:27.445Z,99.99
2022-12-23T01:04:35.863Z,99.99
2022-12-23T01:05:28.910Z,99.99
2022-12-23T01:06:27.084Z,99.99
2022-12-23T01:07:33.901Z,99.99
2022-12-23T01:08:27.897Z,99.99
2022-12-23T01:09:28.172Z,99.99
2022-12-23T01:10:33.996Z,99.99
2022-12-23T01:11:27.948Z,99.99
2022-12-23T01:12:27.169Z,99.99
2022-12-23T01:13:27.441Z,99.99
2022-12-23T01:14:28.742Z,99.99
2022-12-23T01:15:28.987Z,99.99
2022-12-23T01:16:27.351Z,99.99
2022-12-23T01:18:06.914Z,99.99
2022-12-23T01:18:27.677Z,99.99
2022-12-23T01:19:26.918Z,99.99
2022-12-23T01:20:29.251Z,99.99
2022-12-23T01:21:42.027Z,99.99
2022-12-23T01:22:27.683Z,99.99
2022-12-23T01:23:26.852Z,99.99
2022-12-23T01:24:28.176Z,99.99
2022-12-23T01:25:27.404Z,99.99
2022-12-23T01:26:58.892Z,99.99
2022-12-23T01:27:26.867Z,99.99
2022-12-23T01:28:28.247Z,99.99
2022-12-23T01:29:27.410Z,99.99
2022-12-23T01:30:28.713Z,99.99
2022-12-23T01:31:28.948Z,99.99
2022-12-23T01:32:27.286Z,99.99
2022-12-23T01:33:42.046Z,99.99
2022-12-23T01:34:32.551Z,99.99
2022-12-23T01:35:28.460Z,99.99
2022-12-23T01:36:27.252Z,99.99
2022-12-23T01:37:54.633Z,99.99
2022-12-23T01:38:26.704Z,99.99
2022-12-23T01:39:27.060Z,99.99
2022-12-23T01:40:27.233Z,99.99
2022-12-23T01:41:52.468Z,99.99
2022-12-23T01:42:26.754Z,99.99
2022-12-23T01:43:27.352Z,99.99
2022-12-23T01:44:27.317Z,99.99
2022-12-23T01:45:27.596Z,99.99
2022-12-23T01:46:26.843Z,99.99
2022-12-23T01:47:27.043Z,99.99
2022-12-23T01:48:27.323Z,99.99
2022-12-23T01:49:26.579Z,99.99
2022-12-23T01:50:26.790Z,99.99
2022-12-23T01:51:27.119Z,99.95
2022-12-23T01:52:27.422Z,99.85
2022-12-23T01:53:26.581Z,99.75
2022-12-23T01:54:26.907Z,99.75
2022-12-23T01:55:27.169Z,99.54
2022-12-23T01:56:27.417Z,99.44
2022-12-23T01:57:29.750Z,99.44
2022-12-23T01:58:26.913Z,99.44
2022-12-23T01:59:27.213Z,99.54
2022-12-23T02:00:26.419Z,99.65
2022-12-23T02:01:26.805Z,99.65
2022-12-23T02:02:28.146Z,99.65
2022-12-23T02:03:28.313Z,99.65
2022-12-23T02:04:26.493Z,99.65
2022-12-23T02:05:26.768Z,99.65
2022-12-23T02:06:27.063Z,99.54
2022-12-23T02:07:26.340Z,99.54
2022-12-23T02:08:26.562Z,99.54
2022-12-23T02:09:27.959Z,99.54
2022-12-23T02:10:28.177Z,99.54
2022-12-23T02:11:27.407Z,99.54
2022-12-23T02:12:27.673Z,99.44
2022-12-23T02:13:33.127Z,99.54
2022-12-23T02:14:27.187Z,99.54
2022-12-23T02:15:27.628Z,99.54
2022-12-23T02:16:26.758Z,99.54
2022-12-23T02:17:26.986Z,99.34
2022-12-23T02:18:27.274Z,99.34
2022-12-23T02:19:33.771Z,99.29
2022-12-23T02:20:33.215Z,99.29
2022-12-23T02:21:28.101Z,99.34
2022-12-23T02:22:33.560Z,99.29
2022-12-23T02:23:41.077Z,99.29
2022-12-23T02:24:26.819Z,99.29
2022-12-23T02:25:58.457Z,99.29
2022-12-23T02:26:26.441Z,99.29
2022-12-23T02:27:26.734Z,99.34
2022-12-23T02:29:41.866Z,99.19
2022-12-23T02:29:48.105Z,99.19
2022-12-23T02:30:48.467Z,99.29
2022-12-23T02:31:49.036Z,99.29
2022-12-23T02:32:47.919Z,99.29
2022-12-23T02:33:48.217Z,99.19
2022-12-23T02:34:48.535Z,99.19
2022-12-23T02:35:49.757Z,99.19
2022-12-23T02:36:50.168Z,99.29
2022-12-23T02:37:48.286Z,99.29
2022-12-23T02:38:48.507Z,99.29
2022-12-23T02:39:50.765Z,99.19
2022-12-23T02:40:48.016Z,99.09
2022-12-23T02:41:49.196Z,99.09
2022-12-23T02:42:47.673Z,99.19
2022-12-23T02:43:47.853Z,99.29
2022-12-23T02:44:48.108Z,99.29
2022-12-23T02:45:48.431Z,99.29
2022-12-23T02:46:49.664Z,99.40
2022-12-23T02:47:49.355Z,99.40
2022-12-23T02:48:51.376Z,99.54
2022-12-23T02:49:47.518Z,99.50
2022-12-23T02:51:03.345Z,99.60
2022-12-23T02:51:50.250Z,99.60
2022-12-23T02:52:47.371Z,99.70
2022-12-23T02:53:48.749Z,99.70
2022-12-23T02:54:51.038Z,99.75
2022-12-23T02:55:48.267Z,99.80
2022-12-23T02:56:54.818Z,99.80
2022-12-23T02:57:49.971Z,99.80
2022-12-23T02:58:48.100Z,99.80
2022-12-23T02:59:54.688Z,99.80
2022-12-23T03:00:49.720Z,99.80
2022-12-23T03:01:48.070Z,99.80
2022-12-23T03:02:48.439Z,99.91
2022-12-23T03:03:48.572Z,99.91
2022-12-23T03:04:47.733Z,99.95
2022-12-23T03:06:02.667Z,99.95
2022-12-23T03:06:48.346Z,99.95
2022-12-23T03:07:48.215Z,99.91
2022-12-23T03:08:49.564Z,99.95
2022-12-23T03:09:47.210Z,99.95
2022-12-23T03:10:47.496Z,99.95
2022-12-23T03:11:47.826Z,99.95
2022-12-23T03:12:47.125Z,99.99
2022-12-23T03:14:01.892Z,99.99
2022-12-23T03:14:47.695Z,99.99
2022-12-23T03:15:47.920Z,99.99
2022-12-23T03:16:48.195Z,99.99
2022-12-23T03:17:48.526Z,99.99
2022-12-23T03:18:49.607Z,99.99
2022-12-23T03:19:49.961Z,99.99
2022-12-23T03:20:48.251Z,99.99
2022-12-23T03:21:47.475Z,99.99
2022-12-23T03:22:48.817Z,99.99
2022-12-23T03:23:50.530Z,99.99
2022-12-23T03:24:48.301Z,99.91
2022-12-23T03:25:47.590Z,99.80
2022-12-23T03:26:48.020Z,99.80
2022-12-23T03:27:48.160Z,99.91
2022-12-23T03:28:47.430Z,99.91
2022-12-23T03:29:48.670Z,99.91
2022-12-23T03:30:48.041Z,99.91
2022-12-23T03:31:47.220Z,99.91
2022-12-23T03:33:02.184Z,99.91
2022-12-23T03:33:48.841Z,99.70
2022-12-23T03:34:47.029Z,99.40
2022-12-23T03:36:01.865Z,99.40
2022-12-23T03:36:47.614Z,99.29
2022-12-23T03:37:50.971Z,99.29
2022-12-23T03:38:47.186Z,99.09
2022-12-23T03:39:47.441Z,98.88
2022-12-23T03:40:46.711Z,98.68
2022-12-23T03:41:46.992Z,98.68
2022-12-23T03:42:47.315Z,98.68
2022-12-23T03:43:50.880Z,98.68
2022-12-23T03:45:10.699Z,98.68
2022-12-23T03:45:48.099Z,98.78
2022-12-23T03:46:47.476Z,98.88
2022-12-23T03:47:50.716Z,99.09
2022-12-23T03:48:46.919Z,99.29
2022-12-23T03:49:50.685Z,99.44
2022-12-23T03:50:48.511Z,99.50
2022-12-23T03:52:02.326Z,99.65
2022-12-23T03:52:48.030Z,99.75
2022-12-23T03:53:47.527Z,99.75
2022-12-23T03:54:47.630Z,99.85
2022-12-23T03:55:48.105Z,99.95
2022-12-23T03:56:47.136Z,99.95
2022-12-23T03:57:47.401Z,99.99
2022-12-23T03:58:46.645Z,99.99
2022-12-23T03:59:47.986Z,99.99
2022-12-23T04:00:47.231Z,99.99
2022-12-23T04:01:49.735Z,99.99
2022-12-23T04:02:47.969Z,99.95
2022-12-23T04:03:47.111Z,99.85
2022-12-23T04:04:48.443Z,99.75
2022-12-23T04:06:01.211Z,99.65
2022-12-23T04:06:47.965Z,99.54
2022-12-23T04:07:47.472Z,99.50
2022-12-23T04:08:47.527Z,99.44
2022-12-23T04:09:46.750Z,99.34
2022-12-23T04:11:03.711Z,99.29
2022-12-23T04:11:46.296Z,99.29
2022-12-23T04:13:01.142Z,99.24
2022-12-23T04:13:51.040Z,99.09
2022-12-23T04:14:47.141Z,98.88
2022-12-23T04:16:02.005Z,98.68
2022-12-23T04:16:48.820Z,98.68
2022-12-23T04:17:46.921Z,98.68
2022-12-23T04:18:48.397Z,98.47
2022-12-23T04:19:46.507Z,98.47
2022-12-23T04:20:47.828Z,98.27
2022-12-23T04:21:48.988Z,98.37
2022-12-23T04:22:46.233Z,98.42
2022-12-23T04:23:47.551Z,98.27
2022-12-23T04:24:48.835Z,98.11
2022-12-23T04:25:46.993Z,98.00
2022-12-23T04:26:46.362Z,97.96
2022-12-23T04:27:46.464Z,97.86
2022-12-23T04:28:46.702Z,97.91
2022-12-23T04:29:47.957Z,98.00
2022-12-23T04:30:46.146Z,97.91
2022-12-23T04:31:46.481Z,97.91
2022-12-23T04:32:46.675Z,98.00
2022-12-23T04:33:47.901Z,98.11
2022-12-23T04:34:46.199Z,98.21
2022-12-23T04:35:46.502Z,98.11
2022-12-23T04:36:47.707Z,98.11
2022-12-23T04:37:46.009Z,98.11
2022-12-23T04:38:46.293Z,98.11
2022-12-23T04:39:46.540Z,98.11
2022-12-23T04:40:46.915Z,98.21
2022-12-23T04:41:46.962Z,98.11
2022-12-23T04:42:47.212Z,98.11
2022-12-23T04:43:52.788Z,98.11
2022-12-23T04:44:47.813Z,98.11
2022-12-23T04:45:46.014Z,98.21
2022-12-23T04:46:46.528Z,98.32
2022-12-23T04:47:46.563Z,98.32
2022-12-23T04:48:46.797Z,98.42
2022-12-23T04:49:47.034Z,98.52
2022-12-23T04:50:46.291Z,98.52
2022-12-23T04:51:46.941Z,98.62
2022-12-23T04:52:46.737Z,98.72
2022-12-23T04:53:46.088Z,98.62
2022-12-23T04:54:46.702Z,98.52
2022-12-23T04:55:46.612Z,98.52
2022-12-23T04:56:46.803Z,98.62
2022-12-23T04:57:47.346Z,98.62
2022-12-23T04:58:48.369Z,98.52
2022-12-23T04:59:47.568Z,98.52
2022-12-23T05:00:47.048Z,98.52
2022-12-23T05:01:47.394Z,98.57
2022-12-23T05:02:47.649Z,98.42
2022-12-23T05:03:46.571Z,98.21
2022-12-23T05:04:45.894Z,98.16
2022-12-23T05:05:47.130Z,98.05
2022-12-23T05:06:47.402Z,98.05
2022-12-23T05:07:45.679Z,97.80
2022-12-23T05:08:46.020Z,97.80
2022-12-23T05:09:46.246Z,97.70
2022-12-23T05:10:46.572Z,97.70
2022-12-23T05:11:45.817Z,97.70
2022-12-23T05:13:01.187Z,97.74
2022-12-23T05:13:46.408Z,97.70
2022-12-23T05:14:45.728Z,97.64
2022-12-23T05:15:46.903Z,97.44
2022-12-23T05:16:47.274Z,97.39
2022-12-23T05:17:45.485Z,97.29
2022-12-23T05:18:45.747Z,97.29
2022-12-23T05:19:46.176Z,97.29
2022-12-23T05:21:11.350Z,97.29
2022-12-23T05:21:45.587Z,97.29
2022-12-23T05:22:48.980Z,97.29
2022-12-23T05:23:46.165Z,97.29
2022-12-23T05:25:11.578Z,97.23
2022-12-23T05:25:45.674Z,97.23
2022-12-23T05:26:47.981Z,97.23
2022-12-23T05:27:47.226Z,97.03
2022-12-23T05:28:45.512Z,96.92
2022-12-23T05:29:45.809Z,96.92
2022-12-23T05:30:47.157Z,96.72
2022-12-23T05:31:46.347Z,96.41
2022-12-23T05:33:11.678Z,96.37
2022-12-23T05:33:46.000Z,96.26
2022-12-23T05:34:46.188Z,96.20
2022-12-23T05:35:45.515Z,96.06
2022-12-23T05:36:46.777Z,96.10
2022-12-23T05:37:46.066Z,95.95
2022-12-23T05:38:47.300Z,95.86
2022-12-23T05:39:45.612Z,95.90
2022-12-23T05:40:45.910Z,95.86
2022-12-23T05:41:47.156Z,95.65
2022-12-23T05:42:46.501Z,95.75
2022-12-23T05:43:46.699Z,95.65
2022-12-23T05:44:45.070Z,95.59
2022-12-23T05:45:47.351Z,95.65
2022-12-23T05:46:47.667Z,95.54
2022-12-23T05:47:47.021Z,95.44
2022-12-23T05:48:47.246Z,95.49
2022-12-23T05:49:45.466Z,95.44
2022-12-23T05:50:45.771Z,95.24
2022-12-23T05:51:45.052Z,95.14
2022-12-23T05:52:45.682Z,95.14
2022-12-23T05:53:45.717Z,94.83
2022-12-23T05:54:44.923Z,95.03
2022-12-23T05:55:45.221Z,94.93
2022-12-23T05:56:45.050Z,94.73
2022-12-23T05:57:46.377Z,94.73
2022-12-23T05:58:46.557Z,94.52
2022-12-23T05:59:47.062Z,94.52
2022-12-23T06:00:47.061Z,94.42
2022-12-23T06:01:45.460Z,94.42
2022-12-23T06:02:51.701Z,94.11
2022-12-23T06:03:46.017Z,93.70
2022-12-23T06:04:45.142Z,93.70
2022-12-23T06:05:45.414Z,93.60
2022-12-23T06:06:51.939Z,93.60
2022-12-23T06:07:44.931Z,93.60
2022-12-23T06:09:00.434Z,93.19
2022-12-23T06:09:46.681Z,93.19
2022-12-23T06:10:44.791Z,92.98
2022-12-23T06:11:45.125Z,92.98
2022-12-23T06:12:45.401Z,92.88
2022-12-23T06:13:45.008Z,92.78
2022-12-23T06:14:45.331Z,92.88
2022-12-23T06:15:59.588Z,92.98
2022-12-23T06:16:47.337Z,92.98
2022-12-23T06:17:45.598Z,92.88
2022-12-23T06:18:44.827Z,92.88
2022-12-23T06:19:45.127Z,92.88
2022-12-23T06:20:45.472Z,92.98
2022-12-23T06:22:10.602Z,92.88
2022-12-23T06:22:44.948Z,92.78
2022-12-23T06:23:46.301Z,92.78
2022-12-23T06:24:44.489Z,92.88
2022-12-23T06:25:44.769Z,92.88
2022-12-23T06:26:45.196Z,92.88
2022-12-23T06:27:45.389Z,92.78
2022-12-23T06:29:12.706Z,93.08
2022-12-23T06:29:44.966Z,93.19
2022-12-23T06:30:46.268Z,93.08
2022-12-23T06:31:44.505Z,92.98
2022-12-23T06:32:48.043Z,92.88
2022-12-23T06:33:45.126Z,92.78
2022-12-23T06:34:44.346Z,92.78
2022-12-23T06:35:45.700Z,92.98
2022-12-23T06:36:47.082Z,92.98
2022-12-23T06:37:45.247Z,92.98
2022-12-23T06:38:45.634Z,92.88
2022-12-23T06:39:45.797Z,92.98
2022-12-23T06:40:45.117Z,92.78
2022-12-23T06:41:45.332Z,92.88
2022-12-23T06:42:45.611Z,93.08
2022-12-23T06:43:49.862Z,93.08
2022-12-23T06:44:45.358Z,93.08
2022-12-23T06:45:44.532Z,92.98
2022-12-23T06:46:44.851Z,92.98
2022-12-23T06:47:45.145Z,92.98
2022-12-23T06:48:44.419Z,92.98
2022-12-23T06:49:44.719Z,93.08
2022-12-23T06:50:45.041Z,93.29
2022-12-23T06:51:46.297Z,93.49
2022-12-23T06:52:44.591Z,93.70
2022-12-23T06:53:44.896Z,94.11
2022-12-23T06:54:44.157Z,94.62
2022-12-23T06:55:44.933Z,95.34
2022-12-23T06:56:45.711Z,95.75
2022-12-23T06:57:46.016Z,96.47
2022-12-23T06:58:44.352Z,97.03
2022-12-23T06:59:44.632Z,97.54
2022-12-23T07:00:45.909Z,97.95
2022-12-23T07:01:44.516Z,98.36
2022-12-23T07:02:44.641Z,98.57
2022-12-23T07:03:44.852Z,98.87
2022-12-23T07:04:45.049Z,99.08
2022-12-23T07:05:45.311Z,99.28
2022-12-23T07:06:44.731Z,99.54
2022-12-23T07:07:45.948Z,99.63
2022-12-23T07:08:44.212Z,99.74
2022-12-23T07:09:44.567Z,99.95
2022-12-23T07:10:44.838Z,99.99
2022-12-23T07:11:45.179Z,99.99
2022-12-23T07:12:50.388Z,99.99
2022-12-23T07:13:45.771Z,99.99
2022-12-23T07:14:43.991Z,99.99
2022-12-23T07:15:45.272Z,99.99
2022-12-23T07:16:44.689Z,99.99
2022-12-23T07:17:43.881Z,99.99
2022-12-23T07:18:44.167Z,99.99
2022-12-23T07:19:45.459Z,99.99
2022-12-23T07:20:44.776Z,99.99
2022-12-23T07:21:44.067Z,99.99
2022-12-23T07:22:44.431Z,99.99
2022-12-23T07:23:45.576Z,99.99
2022-12-23T07:24:43.974Z,99.99
2022-12-23T07:25:44.142Z,99.99
2022-12-23T07:26:44.403Z,99.99
2022-12-23T07:27:44.707Z,99.99
2022-12-23T07:28:43.887Z,99.99
2022-12-23T07:29:44.158Z,99.99
2022-12-23T07:30:44.447Z,99.99
2022-12-23T07:31:45.751Z,99.99
2022-12-23T07:32:43.838Z,99.99
2022-12-23T07:33:44.142Z,99.99
2022-12-23T07:34:44.347Z,99.99
2022-12-23T07:35:44.650Z,99.99
2022-12-23T07:36:44.791Z,99.99
2022-12-23T07:37:44.084Z,99.99
2022-12-23T07:38:44.474Z,99.99
2022-12-23T07:39:43.560Z,99.99
2022-12-23T07:40:43.837Z,99.99
2022-12-23T07:41:44.175Z,99.99
2022-12-23T07:42:46.498Z,99.99
2022-12-23T07:43:43.576Z,99.99
2022-12-23T07:44:43.992Z,99.99
2022-12-23T07:45:45.029Z,99.99
2022-12-23T07:46:44.393Z,99.99
2022-12-23T07:47:44.466Z,99.99
2022-12-23T07:48:44.804Z,99.99
2022-12-23T07:49:44.041Z,99.99
2022-12-23T07:50:44.284Z,99.99
2022-12-23T07:51:44.511Z,99.99
2022-12-23T07:52:43.779Z,99.99
2022-12-23T07:53:44.009Z,99.99
2022-12-23T07:54:44.268Z,99.99
2022-12-23T07:55:43.563Z,99.99
2022-12-23T07:56:43.802Z,99.99
2022-12-23T07:57:50.224Z,99.74
2022-12-23T07:58:44.279Z,99.54
2022-12-23T07:59:43.444Z,99.33
2022-12-23T08:00:43.733Z,99.12
2022-12-23T08:01:44.084Z,98.71
2022-12-23T08:02:44.341Z,98.41
2022-12-23T08:03:43.458Z,98.20
2022-12-23T08:04:46.467Z,97.89
2022-12-23T08:05:43.801Z,97.58
2022-12-23T08:06:44.121Z,97.38
2022-12-23T08:07:43.225Z,97.28
2022-12-23T08:08:44.389Z,97.07
2022-12-23T08:09:43.617Z,96.97
2022-12-23T08:10:48.480Z,96.56
2022-12-23T08:11:44.118Z,96.35
2022-12-23T08:12:43.294Z,96.35
2022-12-23T08:13:43.529Z,96.35
2022-12-23T08:14:43.679Z,96.25
2022-12-23T08:15:43.895Z,96.25
2022-12-23T08:16:44.282Z,96.15
2022-12-23T08:17:44.452Z,96.04
2022-12-23T08:18:43.511Z,95.90
2022-12-23T08:19:44.709Z,95.90
2022-12-23T08:20:44.023Z,95.90
2022-12-23T08:21:43.165Z,95.79
2022-12-23T08:22:44.444Z,95.69
2022-12-23T08:23:43.722Z,95.49
2022-12-23T08:24:43.925Z,95.49
2022-12-23T08:25:45.115Z,95.28
2022-12-23T08:26:44.348Z,95.28
2022-12-23T08:27:44.649Z,95.07
2022-12-23T08:28:45.051Z,94.98
2022-12-23T08:29:44.014Z,95.07
2022-12-23T08:30:44.435Z,94.98
2022-12-23T08:31:44.579Z,94.77
2022-12-23T08:32:43.829Z,94.67
2022-12-23T08:33:42.984Z,94.77
2022-12-23T08:34:46.469Z,94.67
2022-12-23T08:35:44.466Z,94.77
2022-12-23T08:36:44.680Z,94.67
2022-12-23T08:37:43.993Z,94.77
2022-12-23T08:38:45.213Z,94.87
2022-12-23T08:39:44.354Z,94.87
2022-12-23T08:40:45.795Z,94.98
2022-12-23T08:41:44.798Z,95.07
2022-12-23T08:42:47.116Z,94.98
2022-12-23T08:43:43.421Z,94.98
2022-12-23T08:44:42.634Z,94.87
2022-12-23T08:45:42.965Z,94.67
2022-12-23T08:46:44.396Z,94.46
2022-12-23T08:47:45.500Z,94.26
2022-12-23T08:48:48.844Z,94.15
2022-12-23T08:49:44.099Z,94.26
2022-12-23T08:50:46.466Z,94.15
2022-12-23T08:51:43.580Z,93.95
2022-12-23T08:52:42.870Z,93.85
2022-12-23T08:53:45.140Z,94.05
2022-12-23T08:54:43.409Z,94.15
2022-12-23T08:55:43.694Z,94.26
2022-12-23T08:56:42.937Z,94.26
2022-12-23T08:57:44.445Z,94.26
2022-12-23T08:58:43.524Z,94.26
2022-12-23T08:59:43.736Z,94.26
2022-12-23T09:00:46.154Z,93.74
2022-12-23T09:01:44.457Z,93.54
2022-12-23T09:02:42.825Z,93.64
2022-12-23T09:03:44.013Z,93.70
2022-12-23T09:04:43.150Z,93.80
2022-12-23T09:05:43.345Z,93.74
2022-12-23T09:06:42.705Z,93.85
2022-12-23T09:07:43.015Z,93.80
2022-12-23T09:08:43.276Z,93.90
2022-12-23T09:09:42.480Z,93.90
2022-12-23T09:10:43.706Z,94.01
2022-12-23T09:11:44.200Z,93.90
2022-12-23T09:12:43.381Z,93.70
2022-12-23T09:13:43.158Z,93.70
2022-12-23T09:14:43.947Z,93.70
2022-12-23T09:15:44.229Z,93.60
2022-12-23T09:16:42.499Z,93.29
2022-12-23T09:17:42.713Z,93.08
2022-12-23T09:18:43.035Z,92.98
2022-12-23T09:19:50.348Z,92.98
2022-12-23T09:20:44.436Z,92.78
2022-12-23T09:21:45.840Z,92.88
2022-12-23T09:22:44.071Z,92.78
2022-12-23T09:23:42.265Z,92.68
2022-12-23T09:24:43.552Z,92.36
2022-12-23T09:25:43.801Z,92.27
2022-12-23T09:26:43.125Z,92.27
2022-12-23T09:27:42.345Z,92.27
2022-12-23T09:28:43.640Z,92.36
2022-12-23T09:29:45.174Z,92.57
2022-12-23T09:30:46.226Z,92.57
2022-12-23T09:31:43.378Z,92.47
2022-12-23T09:32:42.665Z,92.06
2022-12-23T09:33:43.873Z,91.96
2022-12-23T09:34:44.165Z,91.96
2022-12-23T09:35:44.511Z,91.86
2022-12-23T09:36:43.670Z,92.27
2022-12-23T09:37:42.996Z,92.27
2022-12-23T09:38:43.326Z,92.47
2022-12-23T09:39:43.556Z,92.16
2022-12-23T09:40:43.741Z,91.96
2022-12-23T09:41:44.206Z,91.96
2022-12-23T09:42:49.650Z,92.16
2022-12-23T09:43:45.610Z,92.27
2022-12-23T09:44:43.595Z,92.36
2022-12-23T09:45:42.201Z,92.47
2022-12-23T09:46:44.353Z,92.57
2022-12-23T09:47:43.627Z,92.68
2022-12-23T09:48:43.832Z,92.88
2022-12-23T09:49:42.031Z,92.94
2022-12-23T09:50:44.251Z,93.04
2022-12-23T09:51:42.537Z,93.04
2022-12-23T09:52:43.705Z,92.88
2022-12-23T09:53:41.961Z,92.57
2022-12-23T09:54:45.287Z,91.96
2022-12-23T09:55:43.392Z,91.96
2022-12-23T09:56:42.706Z,92.16
2022-12-23T09:57:41.871Z,92.16
2022-12-23T09:58:45.375Z,92.06
2022-12-23T09:59:45.478Z,92.16
2022-12-23T10:00:42.605Z,91.96
2022-12-23T10:01:45.109Z,91.65
2022-12-23T10:02:42.219Z,91.75
2022-12-23T10:03:43.478Z,91.96
2022-12-23T10:04:42.561Z,91.65
2022-12-23T10:05:42.671Z,91.96
2022-12-23T10:06:41.996Z,91.96
2022-12-23T10:07:42.223Z,92.06
2022-12-23T10:08:43.438Z,91.86
2022-12-23T10:09:42.599Z,91.96
2022-12-23T10:10:43.117Z,91.96
2022-12-23T10:11:43.094Z,92.06
2022-12-23T10:12:43.356Z,91.96
2022-12-23T10:13:42.631Z,92.06
2022-12-23T10:14:42.726Z,91.96
2022-12-23T10:15:45.391Z,91.96
2022-12-23T10:16:43.355Z,91.96
2022-12-23T10:17:42.539Z,91.96
2022-12-23T10:18:43.751Z,91.96
2022-12-23T10:19:43.064Z,91.96
2022-12-23T10:20:43.207Z,92.16
2022-12-23T10:21:47.297Z,92.27
2022-12-23T10:22:42.682Z,92.16
2022-12-23T10:23:41.984Z,92.27
2022-12-23T10:24:42.154Z,92.47
2022-12-23T10:25:41.372Z,92.27
2022-12-23T10:26:42.616Z,92.16
2022-12-23T10:27:42.009Z,92.16
2022-12-23T10:28:42.158Z,92.16
2022-12-23T10:29:41.381Z,92.27
2022-12-23T10:31:05.814Z,92.27
2022-12-23T10:31:43.181Z,92.36
2022-12-23T10:32:44.447Z,92.16
2022-12-23T10:33:41.377Z,92.06
2022-12-23T10:34:42.563Z,92.27
2022-12-23T10:35:43.803Z,92.36
2022-12-23T10:36:42.110Z,92.47
2022-12-23T10:37:41.228Z,92.57
2022-12-23T10:38:44.686Z,92.57
2022-12-23T10:39:42.752Z,92.47
2022-12-23T10:40:45.003Z,92.47
2022-12-23T10:41:45.269Z,92.57
2022-12-23T10:42:41.593Z,92.16
2022-12-23T10:43:41.667Z,91.86
2022-12-23T10:44:41.937Z,92.06
2022-12-23T10:45:41.158Z,92.57
2022-12-23T10:46:44.590Z,92.68
2022-12-23T10:47:43.607Z,92.16
2022-12-23T10:48:42.932Z,91.71
2022-12-23T10:49:42.123Z,91.71
2022-12-23T10:50:43.322Z,91.71
2022-12-23T10:51:41.569Z,91.71
2022-12-23T10:52:42.811Z,91.40
2022-12-23T10:53:43.053Z,91.40
2022-12-23T10:54:41.297Z,91.30
2022-12-23T10:55:41.598Z,91.30
2022-12-23T10:56:44.848Z,91.20
2022-12-23T10:57:43.117Z,91.50
2022-12-23T10:58:42.254Z,91.71
2022-12-23T10:59:42.508Z,92.02
2022-12-23T11:00:41.813Z,92.12
2022-12-23T11:01:42.164Z,92.43
2022-12-23T11:02:42.371Z,92.53
2022-12-23T11:03:41.611Z,92.53
2022-12-23T11:04:43.736Z,92.22
2022-12-23T11:05:43.082Z,92.22
2022-12-23T11:06:41.249Z,92.43
2022-12-23T11:07:44.606Z,92.32
2022-12-23T11:08:41.669Z,92.22
2022-12-23T11:09:40.967Z,92.53
2022-12-23T11:10:41.204Z,92.74
2022-12-23T11:11:41.424Z,92.83
2022-12-23T11:12:42.548Z,92.74
2022-12-23T11:13:40.831Z,92.83
2022-12-23T11:14:41.057Z,92.83
2022-12-23T11:15:42.204Z,92.94
2022-12-23T11:16:41.513Z,93.04
2022-12-23T11:17:40.664Z,93.04
2022-12-23T11:18:44.038Z,93.25
2022-12-23T11:19:47.418Z,93.55
2022-12-23T11:20:48.060Z,93.86
2022-12-23T11:21:40.647Z,94.17
2022-12-23T11:22:42.912Z,94.37
2022-12-23T11:23:41.135Z,94.48
2022-12-23T11:24:43.562Z,94.73
2022-12-23T11:25:40.508Z,94.83
2022-12-23T11:26:40.758Z,94.93
2022-12-23T11:27:41.069Z,95.14
2022-12-23T11:28:42.268Z,95.34
2022-12-23T11:29:41.466Z,95.65
2022-12-23T11:30:40.659Z,95.75
2022-12-23T11:31:41.918Z,96.06
2022-12-23T11:32:42.122Z,96.37
2022-12-23T11:33:42.258Z,96.47
2022-12-23T11:34:43.742Z,96.67
2022-12-23T11:35:42.803Z,96.82
2022-12-23T11:36:43.037Z,97.03
2022-12-23T11:37:42.237Z,97.33
2022-12-23T11:38:41.423Z,97.54
2022-12-23T11:39:40.623Z,97.74
2022-12-23T11:40:41.969Z,98.05
2022-12-23T11:41:41.113Z,98.25
2022-12-23T11:42:42.294Z,98.61
2022-12-23T11:43:42.628Z,98.92
2022-12-23T11:44:41.766Z,99.12
2022-12-23T11:45:42.198Z,99.33
2022-12-23T11:46:41.248Z,99.54
2022-12-23T11:47:40.512Z,99.74
2022-12-23T11:48:41.738Z,99.95
2022-12-23T11:49:41.898Z,99.99
2022-12-23T11:50:41.243Z,99.99
2022-12-23T11:51:40.441Z,99.99
2022-12-23T11:52:42.658Z,99.99
2022-12-23T11:53:40.858Z,99.99
2022-12-23T11:54:42.179Z,99.99
2022-12-23T11:55:40.288Z,99.99
2022-12-23T11:56:41.930Z,99.99
2022-12-23T11:57:40.840Z,99.99
2022-12-23T11:58:42.003Z,99.99
2022-12-23T11:59:42.242Z,99.99
2022-12-23T12:00:41.568Z,99.99
2022-12-23T12:01:41.655Z,99.99
2022-12-23T12:02:44.739Z,99.99
2022-12-23T12:03:41.222Z,99.99
2022-12-23T12:04:40.365Z,99.99
2022-12-23T12:05:58.990Z,99.99
2022-12-23T12:06:56.842Z,99.99
2022-12-23T12:07:41.989Z,99.99
2022-12-23T12:08:40.303Z,99.99
2022-12-23T12:10:08.563Z,99.99
2022-12-23T12:10:44.175Z,99.99
2022-12-23T12:11:39.929Z,99.99
2022-12-23T12:12:41.022Z,99.99
2022-12-23T12:14:06.403Z,99.99
2022-12-23T12:14:40.620Z,99.99
2022-12-23T12:15:41.923Z,99.99
2022-12-23T12:16:40.073Z,99.99
2022-12-23T12:18:08.344Z,99.99
2022-12-23T12:18:41.587Z,99.99
2022-12-23T12:19:40.249Z,99.99
2022-12-23T12:20:40.962Z,99.99
2022-12-23T12:21:40.217Z,99.99
2022-12-23T12:22:40.457Z,99.99
2022-12-23T12:23:40.708Z,99.99
2022-12-23T12:24:39.894Z,99.99
2022-12-23T12:25:40.486Z,99.99
2022-12-23T12:26:41.204Z,99.99
2022-12-23T12:27:39.612Z,99.99
2022-12-23T12:28:40.943Z,99.99
2022-12-23T12:29:40.103Z,99.99
2022-12-23T12:30:40.410Z,99.99
2022-12-23T12:31:41.657Z,99.99
2022-12-23T12:32:39.818Z,99.99
2022-12-23T12:33:40.077Z,99.99
2022-12-23T12:34:40.347Z,99.99
2022-12-23T12:35:39.553Z,99.99
2022-12-23T12:36:40.884Z,99.99
2022-12-23T12:37:40.049Z,99.99
2022-12-23T12:38:41.309Z,99.99
2022-12-23T12:39:41.559Z,99.99
2022-12-23T12:40:43.807Z,99.99
2022-12-23T12:41:40.058Z,99.99
2022-12-23T12:42:41.445Z,99.99
2022-12-23T12:43:40.552Z,99.99
2022-12-23T12:44:43.829Z,99.99
2022-12-23T12:45:42.168Z,99.99
2022-12-23T12:46:42.175Z,99.99
2022-12-23T12:48:02.340Z,99.99
2022-12-23T12:48:40.682Z,99.99
2022-12-23T12:49:40.896Z,99.99
2022-12-23T12:50:41.161Z,99.99
2022-12-23T12:51:42.305Z,99.99
2022-12-23T12:52:40.570Z,99.99